Time;durP1;ratioP1;P1;durP2;ratioP2;P2;SDS_P1;SDS_P2;PMS_P1;PMS_P2;Temp;Humidity;BMP_temperature;BMP_pressure;BME280_temperature;BME280_humidity;BME280_pressure;Samples;Min_cycle;Max_cycle;Signal;HPM_P1;HPM_P2
2022/08/10 00:02:36;;;;;;;5.13;1.98;;;;;;;-148.56;100.00;61375.16;4938153;28;20028;-31
2022/08/10 00:05:02;;;;;;;3.28;1.80;;;;;;;-148.56;100.00;61375.16;4933106;28;20034;-32
2022/08/10 00:07:27;;;;;;;5.80;1.80;;;;;;;-148.56;100.00;61375.16;4933840;28;20061;-29
2022/08/10 00:09:52;;;;;;;3.35;1.80;;;;;;;-148.56;100.00;61375.16;4925503;28;20093;-28
2022/08/10 00:12:18;;;;;;;3.20;2.10;;;;;;;-148.56;100.00;61375.16;4929796;28;20136;-29
2022/08/10 00:14:44;;;;;;;3.80;1.73;;;;;;;-148.56;100.00;61375.16;4937461;28;20030;-28
2022/08/10 00:17:09;;;;;;;2.33;1.90;;;;;;;-148.56;100.00;61375.16;4937485;28;20034;-29
2022/08/10 00:19:35;;;;;;;2.72;1.70;;;;;;;-148.56;100.00;61375.16;4943346;28;20054;-29
2022/08/10 00:22:00;;;;;;;2.38;1.70;;;;;;;-148.56;100.00;61375.16;4937604;28;20038;-29
2022/08/10 00:24:25;;;;;;;4.15;1.80;;;;;;;-148.56;100.00;61375.16;4927341;28;20026;-30
2022/08/10 00:26:51;;;;;;;4.93;1.50;;;;;;;-148.56;100.00;61375.16;4933834;28;20888;-27
2022/08/10 00:29:16;;;;;;;2.67;1.60;;;;;;;-148.56;100.00;61375.16;4931187;28;20034;-26
2022/08/10 00:31:41;;;;;;;2.22;1.50;;;;;;;-148.56;100.00;61375.16;4933263;28;20139;-26
2022/08/10 00:34:07;;;;;;;4.68;1.80;;;;;;;-148.56;100.00;61375.16;4937685;28;20248;-30
2022/08/10 00:36:32;;;;;;;3.08;1.63;;;;;;;-148.56;100.00;61375.16;4934541;28;20089;-30
2022/08/10 00:38:58;;;;;;;6.30;1.90;;;;;;;-148.56;100.00;61375.16;4929213;28;20057;-27
2022/08/10 00:41:23;;;;;;;2.70;1.75;;;;;;;-148.56;100.00;61375.16;4940431;28;20034;-30
2022/08/10 00:43:48;;;;;;;1.98;1.55;;;;;;;-148.56;100.00;61375.16;4942423;28;20577;-30
2022/08/10 00:46:14;;;;;;;8.80;1.80;;;;;;;-148.56;100.00;61375.16;4942169;28;20108;-29
2022/08/10 00:48:39;;;;;;;1.80;1.50;;;;;;;-148.56;100.00;61375.16;4939003;28;20041;-25
2022/08/10 00:51:05;;;;;;;3.45;1.85;;;;;;;-148.56;100.00;61375.16;4942617;28;20023;-28
2022/08/10 00:53:30;;;;;;;3.00;1.80;;;;;;;-148.56;100.00;61375.16;4938590;28;20049;-29
2022/08/10 00:55:55;;;;;;;2.83;1.70;;;;;;;-148.56;100.00;61375.16;4933041;28;20026;-30
2022/08/10 00:58:21;;;;;;;2.53;1.50;;;;;;;-148.56;100.00;61375.16;4938346;28;20034;-30
2022/08/10 01:00:47;;;;;;;3.92;1.83;;;;;;;-148.56;100.00;61375.16;4919336;28;20026;-33
2022/08/10 01:03:13;;;;;;;3.22;1.80;;;;;;;-148.56;100.00;61375.16;4938974;28;20030;-27
2022/08/10 01:05:59;;;;;;;2.88;1.83;;;;;;;-148.56;100.00;61375.16;4931835;28;20041;-27
2022/08/10 01:08:32;;;;;;;2.20;1.75;;;;;;;-148.56;100.00;61375.16;4935170;28;20026;-26
2022/08/10 01:11:46;;;;;;;3.22;2.00;;;;;;;-148.56;100.00;61375.16;4917717;28;20453;-26
2022/08/10 01:14:51;;;;;;;2.63;1.90;;;;;;;-148.56;100.00;61375.16;4925746;28;20566;-29
2022/08/10 01:17:45;;;;;;;3.45;1.67;;;;;;;-148.56;100.00;61375.16;4872223;29;20039;-29
2022/08/10 01:20:22;;;;;;;2.90;1.70;;;;;;;-148.56;100.00;61375.16;4931186;28;20053;-29
2022/08/10 01:23:02;;;;;;;3.38;1.75;;;;;;;-148.56;100.00;61375.16;4919980;28;20037;-28
2022/08/10 01:25:37;;;;;;;2.28;1.67;;;;;;;-148.56;100.00;61375.16;4937616;28;20140;-25
2022/08/10 01:28:23;;;;;;;2.30;1.45;;;;;;;-148.56;100.00;61375.16;4934409;28;20876;-31
2022/08/10 01:30:48;;;;;;;2.22;1.40;;;;;;;-148.56;100.00;61375.16;4935972;28;20294;-29
2022/08/10 01:33:43;;;;;;;1.90;1.45;;;;;;;-148.56;100.00;61375.16;4934604;28;20799;-29
2022/08/10 01:36:13;;;;;;;2.25;1.60;;;;;;;-148.56;100.00;61375.16;4940782;28;20042;-28
2022/08/10 01:38:44;;;;;;;5.70;1.80;;;;;;;-148.56;100.00;61375.16;4934919;28;20041;-30
2022/08/10 01:41:31;;;;;;;3.40;1.55;;;;;;;-148.56;100.00;61375.16;4939105;28;20065;-31
2022/08/10 01:44:04;;;;;;;4.55;1.70;;;;;;;-148.56;100.00;61375.16;4918198;28;20035;-29
2022/08/10 01:46:30;;;;;;;2.28;1.50;;;;;;;-148.56;100.00;61375.16;4929743;28;20042;-30
2022/08/10 01:48:56;;;;;;;3.38;1.83;;;;;;;-148.56;100.00;61375.16;4925277;28;20038;-28
2022/08/10 01:51:31;;;;;;;5.78;1.92;;;;;;;-148.56;100.00;61375.16;4935297;28;20026;-30
2022/08/10 01:54:01;;;;;;;4.47;1.73;;;;;;;-148.56;100.00;61375.16;4936433;28;20290;-29
2022/08/10 01:56:28;;;;;;;7.00;1.83;;;;;;;-148.56;100.00;61375.16;4936849;28;20041;-24
2022/08/10 01:58:59;;;;;;;4.07;1.80;;;;;;;-148.56;100.00;61375.16;4923560;28;20038;-28
2022/08/10 02:01:27;;;;;;;2.60;1.65;;;;;;;-148.56;100.00;61375.16;4929706;28;20050;-28
2022/08/10 02:03:54;;;;;;;5.60;1.77;;;;;;;-148.56;100.00;61375.16;4934662;28;20113;-27
2022/08/10 02:06:19;;;;;;;7.60;1.65;;;;;;;-148.56;100.00;61375.16;4941649;28;20049;-29
2022/08/10 02:08:45;;;;;;;2.08;1.70;;;;;;;-148.56;100.00;61375.16;4923890;28;21597;-29
2022/08/10 02:11:10;;;;;;;2.92;1.58;;;;;;;-148.56;100.00;61375.16;4934188;28;20035;-28
2022/08/10 02:13:36;;;;;;;2.58;1.80;;;;;;;-148.56;100.00;61375.16;4939882;28;20061;-29
2022/08/10 02:16:01;;;;;;;2.13;1.50;;;;;;;-148.56;100.00;61375.16;4936083;28;20053;-27
2022/08/10 02:18:26;;;;;;;2.25;1.50;;;;;;;-148.56;100.00;61375.16;4932166;28;20109;-28
2022/08/10 02:20:52;;;;;;;3.35;1.70;;;;;;;-148.56;100.00;61375.16;4934269;28;20069;-31
2022/08/10 02:23:24;;;;;;;1.58;1.48;;;;;;;-148.56;100.00;61375.16;4931558;28;22209;-33
2022/08/10 02:25:50;;;;;;;3.70;1.75;;;;;;;-148.56;100.00;61375.16;4939277;28;20064;-31
2022/08/10 02:28:17;;;;;;;2.58;1.67;;;;;;;-148.56;100.00;61375.16;4937892;28;20034;-27
2022/08/10 02:30:42;;;;;;;2.40;1.70;;;;;;;-148.56;100.00;61375.16;4941455;28;20124;-29
2022/08/10 02:33:08;;;;;;;2.40;1.77;;;;;;;-148.56;100.00;61375.16;4931421;28;20034;-30
2022/08/10 02:35:33;;;;;;;5.47;1.73;;;;;;;-148.56;100.00;61375.16;4939668;28;20538;-28
2022/08/10 02:38:02;;;;;;;2.75;1.52;;;;;;;-148.56;100.00;61375.16;4925539;28;20030;-26
2022/08/10 02:40:28;;;;;;;2.45;1.67;;;;;;;-148.56;100.00;61375.16;4941835;28;20204;-28
2022/08/10 02:43:02;;;;;;;7.72;2.00;;;;;;;-148.56;100.00;61375.16;4937487;28;20490;-25
2022/08/10 02:45:48;;;;;;;2.28;1.58;;;;;;;-148.56;100.00;61375.16;4935045;28;20117;-26
2022/08/10 02:48:46;;;;;;;5.00;2.10;;;;;;;-148.56;100.00;61375.16;4925531;28;20026;-27
2022/08/10 02:51:19;;;;;;;3.80;1.70;;;;;;;-148.56;100.00;61375.16;4939897;28;20066;-25
2022/08/10 02:53:50;;;;;;;2.47;1.77;;;;;;;-148.56;100.00;61375.16;4920346;28;20045;-24
2022/08/10 02:56:22;;;;;;;2.72;1.85;;;;;;;-148.56;100.00;61375.16;4935657;28;20034;-27
2022/08/10 02:59:10;;;;;;;2.95;1.60;;;;;;;-148.56;100.00;61375.16;4927130;28;20725;-30
2022/08/10 03:01:40;;;;;;;2.92;1.50;;;;;;;-148.56;100.00;61375.16;4936758;28;20042;-25
2022/08/10 03:04:30;;;;;;;3.05;1.48;;;;;;;-148.56;100.00;61375.16;4938410;28;20129;-28
2022/08/10 03:06:59;;;;;;;1.67;1.58;;;;;;;-148.56;100.00;61375.16;4926972;28;20659;-28
2022/08/10 03:09:25;;;;;;;2.42;1.55;;;;;;;-148.56;100.00;61375.16;4937939;28;20476;-24
2022/08/10 03:11:50;;;;;;;3.40;1.50;;;;;;;-148.56;100.00;61375.16;4924679;28;20061;-28
2022/08/10 03:14:15;;;;;;;2.03;1.60;;;;;;;-148.56;100.00;61375.16;4923977;28;20026;-27
2022/08/10 03:16:41;;;;;;;2.22;1.42;;;;;;;-148.56;100.00;61375.16;4944308;28;21025;-27
2022/08/10 03:19:07;;;;;;;5.50;1.38;;;;;;;-148.56;100.00;61375.16;4917325;28;20548;-29
2022/08/10 03:21:32;;;;;;;2.78;1.65;;;;;;;-148.56;100.00;61375.16;4934654;28;21421;-28
2022/08/10 03:24:01;;;;;;;3.00;1.85;;;;;;;-148.56;100.00;61375.16;4925635;28;20034;-22
2022/08/10 03:26:27;;;;;;;4.53;1.75;;;;;;;-148.56;100.00;61375.16;4942480;28;20022;-28
2022/08/10 03:28:52;;;;;;;2.40;1.60;;;;;;;-148.56;100.00;61375.16;4937151;28;20109;-30
2022/08/10 03:31:18;;;;;;;3.47;1.77;;;;;;;-148.56;100.00;61375.16;4951181;28;20045;-28
2022/08/10 03:33:43;;;;;;;2.53;1.60;;;;;;;-148.56;100.00;61375.16;4943003;28;20112;-28
2022/08/10 03:36:09;;;;;;;3.67;1.83;;;;;;;-148.56;100.00;61375.16;4934450;28;20082;-30
2022/08/10 03:38:34;;;;;;;1.88;1.40;;;;;;;-148.56;100.00;61375.16;4931374;28;20038;-31
2022/08/10 03:41:04;;;;;;;2.65;1.60;;;;;;;-148.56;100.00;61375.16;4941041;28;20499;-31
2022/08/10 03:43:29;;;;;;;2.65;1.55;;;;;;;-148.56;100.00;61375.16;4936278;28;20034;-29
2022/08/10 03:45:57;;;;;;;2.72;1.70;;;;;;;-148.56;100.00;61375.16;4938408;28;20038;-27
2022/08/10 03:48:23;;;;;;;1.88;1.52;;;;;;;-148.56;100.00;61375.16;4945713;28;20562;-27
2022/08/10 03:50:49;;;;;;;2.17;1.70;;;;;;;-148.56;100.00;61375.16;4919339;28;20041;-30
2022/08/10 03:53:15;;;;;;;1.60;1.50;;;;;;;-148.56;100.00;61375.16;4940358;28;20284;-26
2022/08/10 03:55:41;;;;;;;2.03;1.48;;;;;;;-148.56;100.00;61375.16;4953864;28;20034;-30
2022/08/10 03:58:06;;;;;;;3.47;1.70;;;;;;;-148.56;100.00;61375.16;4917585;28;20053;-27
2022/08/10 04:00:34;;;;;;;3.70;1.40;;;;;;;-148.56;100.00;61375.16;4936250;28;20034;-27
2022/08/10 04:03:03;;;;;;;2.72;1.55;;;;;;;-148.56;100.00;61375.16;4945761;28;20038;-28
2022/08/10 04:05:30;;;;;;;2.50;1.55;;;;;;;-148.56;100.00;61375.16;4939946;28;20044;-28
2022/08/10 04:07:55;;;;;;;3.85;2.00;;;;;;;-148.56;100.00;61375.16;4940108;28;20830;-26
2022/08/10 04:10:21;;;;;;;3.70;1.52;;;;;;;-148.56;100.00;61375.16;4935484;28;20061;-32
2022/08/10 04:12:46;;;;;;;1.50;1.38;;;;;;;-148.56;100.00;61375.16;4936829;28;20034;-26
2022/08/10 04:15:12;;;;;;;1.40;1.23;;;;;;;-148.56;100.00;61375.16;4943928;28;20034;-30
2022/08/10 04:17:37;;;;;;;3.30;1.60;;;;;;;-148.56;100.00;61375.16;4941529;28;20034;-26
2022/08/10 04:20:03;;;;;;;3.53;1.60;;;;;;;-148.56;100.00;61375.16;4944338;28;20263;-28
2022/08/10 04:22:28;;;;;;;1.95;1.52;;;;;;;-148.56;100.00;61375.16;4946583;28;20259;-29
2022/08/10 04:24:58;;;;;;;2.03;1.55;;;;;;;-148.56;100.00;61375.16;4941205;28;20037;-29
2022/08/10 04:27:23;;;;;;;5.10;1.70;;;;;;;-148.56;100.00;61375.16;4936909;28;20030;-28
2022/08/10 04:29:50;;;;;;;2.67;1.83;;;;;;;-148.56;100.00;61375.16;4939389;28;20577;-26
2022/08/10 04:32:16;;;;;;;2.33;1.45;;;;;;;-148.56;100.00;61375.16;4942904;28;20042;-28
2022/08/10 04:34:42;;;;;;;3.08;1.60;;;;;;;-148.56;100.00;61375.16;4942809;28;20034;-27
2022/08/10 04:37:08;;;;;;;5.93;1.60;;;;;;;-148.56;100.00;61375.16;4923402;28;20625;-25
2022/08/10 04:39:33;;;;;;;3.72;1.55;;;;;;;-148.56;100.00;61375.16;4934591;28;20641;-24
2022/08/10 04:41:59;;;;;;;3.75;1.70;;;;;;;-148.56;100.00;61375.16;4938355;28;20038;-28
2022/08/10 04:44:24;;;;;;;5.45;1.80;;;;;;;-148.56;100.00;61375.16;4930352;28;20096;-28
2022/08/10 04:46:49;;;;;;;3.65;1.95;;;;;;;-148.56;100.00;61375.16;4939023;28;20716;-27
2022/08/10 04:49:15;;;;;;;1.88;1.70;;;;;;;-148.56;100.00;61375.16;4936271;28;20042;-26
2022/08/10 04:51:40;;;;;;;3.03;1.60;;;;;;;-148.56;100.00;61375.16;4935907;28;20161;-29
2022/08/10 04:54:06;;;;;;;3.72;1.58;;;;;;;-148.56;100.00;61375.16;4942168;28;20084;-25
2022/08/10 04:56:31;;;;;;;3.05;1.60;;;;;;;-148.56;100.00;61375.16;4939764;28;20034;-26
2022/08/10 04:58:56;;;;;;;4.03;1.80;;;;;;;-148.56;100.00;61375.16;4934570;28;20038;-27
2022/08/10 05:01:22;;;;;;;2.67;1.80;;;;;;;-148.56;100.00;61375.16;4941833;28;20304;-27
2022/08/10 05:03:47;;;;;;;3.25;1.60;;;;;;;-148.56;100.00;61375.16;4940546;28;20026;-26
2022/08/10 05:06:12;;;;;;;2.42;1.55;;;;;;;-148.56;100.00;61375.16;4933827;28;21828;-23
2022/08/10 05:08:38;;;;;;;2.88;1.80;;;;;;;-148.56;100.00;61375.16;4945462;28;20050;-25
2022/08/10 05:11:03;;;;;;;7.65;1.90;;;;;;;-148.56;100.00;61375.16;4942902;28;20046;-28
2022/08/10 05:13:29;;;;;;;5.05;1.77;;;;;;;-148.56;100.00;61375.16;4937935;28;20038;-26
2022/08/10 05:15:55;;;;;;;4.07;1.50;;;;;;;-148.56;100.00;61375.16;4947491;28;20081;-26
2022/08/10 05:18:21;;;;;;;3.90;1.50;;;;;;;-148.56;100.00;61375.16;4934943;28;20034;-28
2022/08/10 05:20:46;;;;;;;8.82;2.15;;;;;;;-148.56;100.00;61375.16;4943744;28;20097;-24
2022/08/10 05:23:11;;;;;;;3.08;1.83;;;;;;;-148.56;100.00;61375.16;4940242;28;20618;-25
2022/08/10 05:25:37;;;;;;;3.60;1.80;;;;;;;-148.56;100.00;61375.16;4940716;28;20029;-27
2022/08/10 05:28:02;;;;;;;3.72;1.60;;;;;;;-148.56;100.00;61375.16;4940234;28;20786;-28
2022/08/10 05:30:28;;;;;;;2.35;1.60;;;;;;;-148.56;100.00;61375.16;4937821;28;20030;-29
2022/08/10 05:32:53;;;;;;;1.33;1.23;;;;;;;-148.56;100.00;61375.16;4944554;28;20906;-26
2022/08/10 05:35:19;;;;;;;5.07;1.63;;;;;;;-148.56;100.00;61375.16;4941423;28;20687;-28
2022/08/10 05:37:45;;;;;;;3.15;1.30;;;;;;;-148.56;100.00;61375.16;4931417;28;21933;-29
2022/08/10 05:40:11;;;;;;;2.17;1.58;;;;;;;-148.56;100.00;61375.16;4942315;28;20030;-27
2022/08/10 05:42:36;;;;;;;2.33;1.40;;;;;;;-148.56;100.00;61375.16;4940430;28;20539;-31
2022/08/10 05:45:02;;;;;;;2.92;1.60;;;;;;;-148.56;100.00;61375.16;4940723;28;20138;-26
2022/08/10 05:47:28;;;;;;;4.13;1.67;;;;;;;-148.56;100.00;61375.16;4933325;28;20070;-28
2022/08/10 05:49:54;;;;;;;1.98;1.48;;;;;;;-148.56;100.00;61375.16;4914826;28;20566;-30
2022/08/10 05:52:19;;;;;;;2.05;1.50;;;;;;;-148.56;100.00;61375.16;4944157;28;21222;-27
2022/08/10 05:54:45;;;;;;;2.72;1.65;;;;;;;-148.56;100.00;61375.16;4930631;28;20038;-26
2022/08/10 05:57:11;;;;;;;1.98;1.42;;;;;;;-148.56;100.00;61375.16;4950890;28;20034;-25
2022/08/10 05:59:38;;;;;;;3.08;1.80;;;;;;;-148.56;100.00;61375.16;4951330;28;20042;-24
2022/08/10 06:02:04;;;;;;;2.88;1.80;;;;;;;-148.56;100.00;61375.16;4913481;28;20062;-26
2022/08/10 06:04:37;;;;;;;3.47;1.80;;;;;;;-148.56;100.00;61375.16;4929956;28;20025;-24
2022/08/10 06:07:03;;;;;;;11.55;2.40;;;;;;;-148.56;100.00;61375.16;4932014;28;20030;-29
2022/08/10 06:09:30;;;;;;;7.88;3.60;;;;;;;-148.56;100.00;61375.16;4932500;28;20772;-27
2022/08/10 06:11:55;;;;;;;7.45;2.75;;;;;;;-148.56;100.00;61375.16;4938554;28;20101;-32
2022/08/10 06:17:04;;;;;;;9.77;3.00;;;;;;;-148.56;100.00;61375.16;4919286;28;20109;-29
2022/08/10 06:19:30;;;;;;;5.53;2.25;;;;;;;-148.56;100.00;61375.16;4930091;28;20321;-27
2022/08/10 06:22:00;;;;;;;13.27;2.50;;;;;;;-148.56;100.00;61375.16;4934658;28;20865;-29
2022/08/10 06:24:25;;;;;;;5.97;2.45;;;;;;;-148.56;100.00;61375.16;4931951;28;20065;-29
2022/08/10 06:26:51;;;;;;;12.77;2.42;;;;;;;-148.56;100.00;61375.16;4927163;28;22009;-26
2022/08/10 06:29:16;;;;;;;5.57;2.40;;;;;;;-148.56;100.00;61375.16;4926962;28;20034;-28
2022/08/10 06:31:48;;;;;;;3.53;2.00;;;;;;;-148.56;100.00;61375.16;4933667;28;20085;-30
2022/08/10 06:34:13;;;;;;;6.18;2.17;;;;;;;-148.56;100.00;61375.16;4927787;28;20517;-25
2022/08/10 06:36:38;;;;;;;8.23;1.75;;;;;;;-148.56;100.00;61375.16;4933414;28;20068;-29
2022/08/10 06:39:04;;;;;;;4.88;2.00;;;;;;;-148.56;100.00;61375.16;4924749;28;20054;-27
2022/08/10 06:41:31;;;;;;;3.35;1.80;;;;;;;-148.56;100.00;61375.16;4915493;28;20723;-28
2022/08/10 06:44:03;;;;;;;5.00;1.77;;;;;;;-148.56;100.00;61375.16;4935386;28;20728;-27
2022/08/10 06:46:28;;;;;;;3.75;1.77;;;;;;;-148.56;100.00;61375.16;4935701;28;20046;-27
2022/08/10 06:48:57;;;;;;;4.65;2.00;;;;;;;-148.56;100.00;61375.16;4918084;28;20033;-30
2022/08/10 06:51:26;;;;;;;9.35;2.08;;;;;;;-148.56;100.00;61375.16;4936750;28;20026;-24
2022/08/10 06:53:53;;;;;;;2.47;1.83;;;;;;;-148.56;100.00;61375.16;4937570;28;20026;-29
2022/08/10 06:56:20;;;;;;;3.45;2.00;;;;;;;-148.56;100.00;61375.16;4913756;28;20030;-30
2022/08/10 06:58:53;;;;;;;4.05;1.60;;;;;;;-148.56;100.00;61375.16;4935132;28;20056;-29
2022/08/10 07:01:20;;;;;;;8.73;1.80;;;;;;;-148.56;100.00;61375.16;4937620;28;20140;-33
2022/08/10 07:03:47;;;;;;;3.17;1.65;;;;;;;-148.56;100.00;61375.16;4930793;28;20029;-28
2022/08/10 07:06:13;;;;;;;3.45;1.60;;;;;;;-148.56;100.00;61375.16;4934988;28;20034;-30
2022/08/10 07:08:39;;;;;;;5.47;1.98;;;;;;;-148.56;100.00;61375.16;4910923;28;20042;-29
2022/08/10 07:11:04;;;;;;;4.18;1.50;;;;;;;-148.56;100.00;61375.16;4950013;28;20046;-29
2022/08/10 07:13:30;;;;;;;7.57;1.60;;;;;;;-148.56;100.00;61375.16;4933519;28;21067;-28
2022/08/10 07:15:55;;;;;;;6.03;1.60;;;;;;;-148.56;100.00;61375.16;4935095;28;20128;-29
2022/08/10 07:18:21;;;;;;;5.30;1.75;;;;;;;-148.56;100.00;61375.16;4934737;28;20031;-30
2022/08/10 07:20:47;;;;;;;7.97;1.63;;;;;;;-148.56;100.00;61375.16;4934110;28;20137;-30
2022/08/10 07:23:12;;;;;;;3.83;1.80;;;;;;;-148.56;100.00;61375.16;4932342;28;20045;-27
2022/08/10 07:25:38;;;;;;;7.90;1.90;;;;;;;-148.56;100.00;61375.16;4930387;28;20342;-25
2022/08/10 07:28:03;;;;;;;3.45;1.73;;;;;;;-148.56;100.00;61375.16;4948171;28;20035;-27
2022/08/10 07:30:30;;;;;;;5.78;1.73;;;;;;;-148.56;100.00;61375.16;4934299;28;20049;-27
2022/08/10 07:32:55;;;;;;;2.88;1.67;;;;;;;-148.56;100.00;61375.16;4938328;28;20034;-29
2022/08/10 07:35:21;;;;;;;5.78;1.63;;;;;;;-148.56;100.00;61375.16;4932416;28;20237;-28
2022/08/10 07:37:48;;;;;;;4.22;1.75;;;;;;;-148.56;100.00;61375.16;4938089;28;20030;-30
2022/08/10 07:40:14;;;;;;;5.07;1.88;;;;;;;-148.56;100.00;61375.16;4931282;28;20561;-28
2022/08/10 07:42:39;;;;;;;8.60;1.70;;;;;;;-148.56;100.00;61375.16;4935138;28;20049;-29
2022/08/10 07:45:05;;;;;;;6.50;1.60;;;;;;;-148.56;100.00;61375.16;4909370;28;22495;-25
2022/08/10 07:47:38;;;;;;;8.68;1.70;;;;;;;-148.56;100.00;61375.16;4939166;28;20110;-29
2022/08/10 07:50:06;;;;;;;6.07;1.90;;;;;;;-148.56;100.00;61375.16;4946739;28;20089;-29
2022/08/10 07:52:32;;;;;;;6.82;1.63;;;;;;;-148.56;100.00;61375.16;4948142;28;20064;-29
2022/08/10 07:54:57;;;;;;;6.25;1.75;;;;;;;-148.56;100.00;61375.16;4939374;28;20908;-24
2022/08/10 07:57:24;;;;;;;5.95;2.00;;;;;;;-148.56;100.00;61375.16;4939838;28;20188;-27
2022/08/10 07:59:53;;;;;;;7.00;1.92;;;;;;;-148.56;100.00;61375.16;4925808;28;20022;-27
2022/08/10 08:02:45;;;;;;;4.68;1.85;;;;;;;-148.56;100.00;61375.16;4914843;28;20030;-31
2022/08/10 08:05:12;;;;;;;7.18;1.85;;;;;;;-148.56;100.00;61375.16;4933143;28;20172;-30
2022/08/10 08:07:38;;;;;;;11.30;2.10;;;;;;;-148.56;100.00;61375.16;4930756;28;20041;-28
2022/08/10 08:10:03;;;;;;;3.38;1.73;;;;;;;-148.56;100.00;61375.16;4912663;28;20038;-32
2022/08/10 08:12:29;;;;;;;7.63;1.80;;;;;;;-148.56;100.00;61375.16;4928227;28;20055;-29
2022/08/10 08:14:54;;;;;;;9.15;1.65;;;;;;;-148.56;100.00;61375.16;4913220;28;20885;-29
2022/08/10 08:17:20;;;;;;;5.78;1.90;;;;;;;-148.56;100.00;61375.16;4951690;28;22222;-30
2022/08/10 08:19:45;;;;;;;4.95;1.75;;;;;;;-148.56;100.00;61375.16;4932454;28;20720;-25
2022/08/10 08:22:11;;;;;;;7.18;1.77;;;;;;;-148.56;100.00;61375.16;4939581;28;20034;-27
2022/08/10 08:24:36;;;;;;;7.78;1.77;;;;;;;-148.56;100.00;61375.16;4943169;28;20509;-29
2022/08/10 08:27:02;;;;;;;5.97;1.63;;;;;;;-148.56;100.00;61375.16;4941622;28;20210;-30
2022/08/10 08:29:29;;;;;;;10.23;1.80;;;;;;;-148.56;100.00;61375.16;4939346;28;20136;-29
2022/08/10 08:31:54;;;;;;;6.88;1.70;;;;;;;-148.56;100.00;61375.16;4941922;28;20030;-26
2022/08/10 08:34:20;;;;;;;5.32;1.80;;;;;;;-148.56;100.00;61375.16;4940530;28;20069;-26
2022/08/10 08:36:45;;;;;;;5.65;1.80;;;;;;;-148.56;100.00;61375.16;4933580;28;20402;-28
2022/08/10 08:39:11;;;;;;;6.60;2.03;;;;;;;-148.56;100.00;61375.16;4926059;28;20050;-29
2022/08/10 08:41:56;;;;;;;6.88;1.83;;;;;;;-148.56;100.00;61375.16;4935838;28;20030;-31
2022/08/10 08:44:39;;;;;;;4.28;1.45;;;;;;;-148.56;100.00;61375.16;4936514;28;20048;-27
2022/08/10 08:47:39;;;;;;;6.60;1.67;;;;;;;-148.56;100.00;61375.16;4935353;28;20508;-30
2022/08/10 08:50:16;;;;;;;15.23;1.90;;;;;;;-148.56;100.00;61375.16;4933838;28;20077;-26
2022/08/10 08:53:06;;;;;;;6.30;1.70;;;;;;;-148.56;100.00;61375.16;4936060;28;20041;-31
2022/08/10 08:55:44;;;;;;;4.97;1.88;;;;;;;-148.56;100.00;61375.16;4938380;28;20045;-30
2022/08/10 08:58:35;;;;;;;5.75;1.80;;;;;;;-148.56;100.00;61375.16;4931659;28;20038;-30
2022/08/10 09:01:13;;;;;;;4.15;1.48;;;;;;;-148.56;100.00;61375.16;4939402;28;20104;-28
2022/08/10 09:03:53;;;;;;;3.80;1.75;;;;;;;-148.56;100.00;61375.16;4940805;28;20153;-30
2022/08/10 09:06:40;;;;;;;6.68;1.50;;;;;;;-148.56;100.00;61375.16;4934084;28;21588;-27
2022/08/10 09:09:42;;;;;;;3.00;1.63;;;;;;;-148.56;100.00;61375.16;4936271;28;20038;-29
2022/08/10 09:12:35;;;;;;;4.90;1.55;;;;;;;-148.56;100.00;61375.16;4940541;28;20061;-32
2022/08/10 09:15:25;;;;;;;7.15;2.47;;;;;;;-148.56;100.00;61375.16;4945705;28;20041;-27
2022/08/10 09:18:02;;;;;;;9.85;3.30;;;;;;;-148.56;100.00;61375.16;4962108;28;20121;-29
2022/08/10 09:20:53;;;;;;;16.52;3.70;;;;;;;-148.56;100.00;61375.16;4945354;28;20034;-31
2022/08/10 09:23:31;;;;;;;19.23;4.10;;;;;;;-148.56;100.00;61375.16;4945817;28;20034;-26
2022/08/10 09:26:49;;;;;;;17.52;4.22;;;;;;;-148.56;100.00;61375.16;4944079;28;20137;-27
2022/08/10 09:29:26;;;;;;;21.25;4.68;;;;;;;-148.56;100.00;61375.16;4946348;28;20481;-23
2022/08/10 09:32:04;;;;;;;16.67;4.95;;;;;;;-148.56;100.00;61375.16;4950144;28;20041;-29
2022/08/10 09:34:33;;;;;;;18.48;5.00;;;;;;;-148.56;100.00;61375.16;4949261;28;20387;-36
2022/08/10 09:37:16;;;;;;;18.00;5.18;;;;;;;-148.56;100.00;61375.16;4947775;28;20057;-27
2022/08/10 09:39:45;;;;;;;19.75;5.00;;;;;;;-148.56;100.00;61375.16;4881476;28;1103048;-26
2022/08/10 09:42:43;;;;;;;17.67;5.30;;;;;;;-148.56;100.00;61375.16;4943742;28;20046;-23
2022/08/10 09:45:08;;;;;;;16.35;4.47;;;;;;;-148.56;100.00;61375.16;4946919;28;20069;-28
2022/08/10 09:48:25;;;;;;;25.25;5.25;;;;;;;-148.56;100.00;61375.16;4949116;28;20045;-30
2022/08/10 09:51:13;;;;;;;16.17;4.20;;;;;;;-148.56;100.00;61375.16;4946371;28;20422;-29
2022/08/10 09:53:50;;;;;;;16.70;4.95;;;;;;;-148.56;100.00;61375.16;4945306;28;20080;-27
2022/08/10 09:56:33;;;;;;;14.00;4.30;;;;;;;-148.56;100.00;61375.16;4947436;28;20038;-25
2022/08/10 09:59:05;;;;;;;15.18;4.90;;;;;;;-148.56;100.00;61375.16;4946560;28;20061;-28
2022/08/10 10:01:41;;;;;;;11.48;4.30;;;;;;;-148.56;100.00;61375.16;4948772;28;20156;-28
2022/08/10 10:04:21;;;;;;;12.70;4.13;;;;;;;-148.56;100.00;61375.16;4948127;28;20093;-29
2022/08/10 10:07:03;;;;;;;14.07;3.90;;;;;;;-148.56;100.00;61375.16;4931960;28;20034;-29
2022/08/10 10:10:01;;;;;;;12.65;4.07;;;;;;;-148.56;100.00;61375.16;4947669;28;20026;-26
2022/08/10 10:12:41;;;;;;;12.23;3.38;;;;;;;-148.56;100.00;61375.16;4951677;28;20065;-29
2022/08/10 10:15:25;;;;;;;12.65;4.03;;;;;;;-148.56;100.00;61375.16;4948862;28;20034;-26
2022/08/10 10:18:15;;;;;;;12.32;4.10;;;;;;;-148.56;100.00;61375.16;4947124;28;20157;-25
2022/08/10 10:20:52;;;;;;;10.27;3.97;;;;;;;-148.56;100.00;61375.16;4950027;28;20113;-30
2022/08/10 10:23:49;;;;;;;12.18;3.60;;;;;;;-148.56;100.00;61375.16;4954069;28;20037;-30
2022/08/10 10:26:32;;;;;;;11.82;3.55;;;;;;;-148.56;100.00;61375.16;4947377;28;20041;-30
2022/08/10 10:29:20;;;;;;;10.18;3.40;;;;;;;-148.56;100.00;61375.16;4944633;28;20030;-30
2022/08/10 10:31:55;;;;;;;9.75;3.78;;;;;;;-148.56;100.00;61375.16;4948797;28;21374;-28
2022/08/10 10:34:34;;;;;;;9.50;3.50;;;;;;;-148.56;100.00;61375.16;4946103;28;20058;-31
2022/08/10 10:36:59;;;;;;;10.70;3.70;;;;;;;-148.56;100.00;61375.16;4951344;28;20042;-28
2022/08/10 10:39:24;;;;;;;9.35;3.88;;;;;;;-148.56;100.00;61375.16;4928403;28;20030;-28
2022/08/10 10:42:15;;;;;;;10.02;3.30;;;;;;;-148.56;100.00;61375.16;4944896;28;20081;-28
2022/08/10 10:45:09;;;;;;;8.30;3.25;;;;;;;-148.56;100.00;61375.16;4948926;28;20160;-31
2022/08/10 10:47:45;;;;;;;9.93;3.15;;;;;;;-148.56;100.00;61375.16;4926511;28;20035;-28
2022/08/10 10:50:28;;;;;;;7.88;2.88;;;;;;;-148.56;100.00;61375.16;4944767;28;21053;-33
2022/08/10 10:53:31;;;;;;;9.38;3.05;;;;;;;-148.56;100.00;61375.16;4946838;28;20044;-31
2022/08/10 10:56:04;;;;;;;6.70;2.90;;;;;;;-148.56;100.00;61375.16;4946410;28;20160;-29
2022/08/10 10:58:36;;;;;;;6.10;2.65;;;;;;;-148.56;100.00;61375.16;4942353;28;20087;-27
2022/08/10 11:01:19;;;;;;;6.85;2.85;;;;;;;-148.56;100.00;61375.16;4941372;28;20499;-30
2022/08/10 11:04:02;;;;;;;8.38;3.05;;;;;;;-148.56;100.00;61375.16;4944248;28;20357;-28
2022/08/10 11:06:46;;;;;;;8.63;2.60;;;;;;;-148.56;100.00;61375.16;4942486;28;20037;-30
2022/08/10 11:09:18;;;;;;;6.53;3.10;;;;;;;-148.56;100.00;61375.16;4948599;28;20092;-31
2022/08/10 11:11:43;;;;;;;8.38;2.95;;;;;;;-148.56;100.00;61375.16;4931701;28;20038;-32
2022/08/10 11:14:17;;;;;;;6.05;2.55;;;;;;;-148.56;100.00;61375.16;4930450;28;20537;-30
2022/08/10 11:17:21;;;;;;;5.32;2.45;;;;;;;-148.56;100.00;61375.16;4947480;28;20033;-30
2022/08/10 11:20:15;;;;;;;5.40;2.47;;;;;;;-148.56;100.00;61375.16;4934536;28;20135;-27
2022/08/10 11:22:52;;;;;;;5.75;2.55;;;;;;;-148.56;100.00;61375.16;4948791;28;20742;-29
2022/08/10 11:25:31;;;;;;;5.68;2.55;;;;;;;-148.56;100.00;61375.16;4943667;28;20034;-32
2022/08/10 11:28:05;;;;;;;5.80;2.70;;;;;;;-148.56;100.00;61375.16;4942033;28;20127;-30
2022/08/10 11:30:55;;;;;;;6.70;2.38;;;;;;;-148.56;100.00;61375.16;4945859;28;20038;-32
2022/08/10 11:34:11;;;;;;;6.15;2.47;;;;;;;-148.56;100.00;61375.16;4948382;28;20042;-30